createdAt,value
2022-12-06T00:01:35.183Z,99060.19
2022-12-06T00:04:04.056Z,99067.91
2022-12-06T00:06:32.456Z,99042.56
2022-12-06T00:08:59.633Z,99051.41
2022-12-06T00:11:28.230Z,99069.63
2022-12-06T00:13:56.423Z,99064.78
2022-12-06T00:16:23.390Z,99066.47
2022-12-06T00:18:50.437Z,99064.88
2022-12-06T00:21:17.178Z,99069.50
2022-12-06T00:23:45.525Z,99013.28
2022-12-06T00:26:12.897Z,99022.34
2022-12-06T00:28:39.817Z,99044.66
2022-12-06T00:31:08.727Z,99061.94
2022-12-06T00:33:36.232Z,99049.81
2022-12-06T00:36:05.459Z,99047.38
2022-12-06T00:38:32.561Z,99047.69
2022-12-06T00:41:04.835Z,99029.03
2022-12-06T00:43:32.058Z,99048.00
2022-12-06T00:45:59.334Z,99038.00
2022-12-06T00:48:26.342Z,99049.94
2022-12-06T00:50:53.288Z,98967.75
2022-12-06T00:53:20.293Z,99023.59
2022-12-06T00:55:47.141Z,99006.72
2022-12-06T00:58:13.990Z,99029.03
2022-12-06T01:00:41.136Z,99036.84
2022-12-06T01:03:08.168Z,98980.84
2022-12-06T01:05:39.581Z,99033.66
2022-12-06T01:08:06.596Z,99036.63
2022-12-06T01:10:33.482Z,99027.72
2022-12-06T01:13:00.410Z,99016.06
2022-12-06T01:15:27.378Z,99003.13
2022-12-06T01:17:54.216Z,99005.63
2022-12-06T01:20:21.092Z,98997.28
2022-12-06T01:22:47.988Z,98992.44
2022-12-06T01:25:14.895Z,98993.03
2022-12-06T01:27:41.753Z,98966.16
2022-12-06T01:30:08.900Z,98980.63
2022-12-06T01:32:35.770Z,98976.59
2022-12-06T01:35:02.633Z,98977.59
2022-12-06T01:37:29.520Z,98968.19
2022-12-06T01:39:56.411Z,98959.53
2022-12-06T01:42:23.471Z,98956.84
2022-12-06T01:44:52.208Z,98965.75
2022-12-06T01:47:29.717Z,98899.53
2022-12-06T01:50:09.464Z,98958.50
2022-12-06T01:52:58.034Z,98956.13
2022-12-06T01:55:27.698Z,98950.69
2022-12-06T01:57:57.255Z,98930.69
2022-12-06T02:00:24.347Z,98945.09
2022-12-06T02:02:51.582Z,98939.94
2022-12-06T02:05:18.543Z,98939.94
2022-12-06T02:07:45.408Z,98938.63
2022-12-06T02:10:12.972Z,98928.63
2022-12-06T02:12:39.868Z,98930.50
2022-12-06T02:15:07.238Z,98934.06
2022-12-06T02:18:01.962Z,98934.34
2022-12-06T02:20:36.478Z,98940.34
2022-12-06T02:23:30.797Z,98952.03
2022-12-06T02:26:03.851Z,98952.34
2022-12-06T02:28:49.367Z,98926.38
2022-12-06T02:31:22.942Z,98951.63
2022-12-06T02:34:11.345Z,98955.91
2022-12-06T02:36:44.171Z,98957.34
2022-12-06T02:39:27.488Z,98937.28
2022-12-06T02:42:18.825Z,98946.78
2022-12-06T02:44:48.212Z,98941.97
2022-12-06T02:47:15.099Z,98934.22
2022-12-06T02:49:46.344Z,98903.28
2022-12-06T02:52:13.573Z,98943.56
2022-12-06T02:54:40.822Z,98938.75
2022-12-06T02:57:07.688Z,98931.53
2022-12-06T02:59:34.578Z,98919.81
2022-12-06T03:02:02.727Z,98919.59
2022-12-06T03:04:46.116Z,98915.78
2022-12-06T03:07:19.818Z,98914.91
2022-12-06T03:10:00.133Z,98902.97
2022-12-06T03:12:27.289Z,98906.72
2022-12-06T03:15:14.963Z,98905.53
2022-12-06T03:17:52.655Z,98894.25
2022-12-06T03:20:21.600Z,98897.41
2022-12-06T03:22:51.191Z,98903.13
2022-12-06T03:25:18.146Z,98905.31
2022-12-06T03:27:45.632Z,98871.53
2022-12-06T03:30:13.246Z,98904.22
2022-12-06T03:32:41.683Z,98904.78
2022-12-06T03:35:09.783Z,98884.72
2022-12-06T03:37:36.913Z,98900.59
2022-12-06T03:40:11.938Z,98909.22
2022-12-06T03:42:38.819Z,98901.53
2022-12-06T03:45:06.245Z,98873.28
2022-12-06T03:48:08.579Z,98899.41
2022-12-06T03:50:38.980Z,98904.06
2022-12-06T03:53:05.853Z,98892.25
2022-12-06T03:55:32.731Z,98871.28
2022-12-06T03:57:59.644Z,98883.06
2022-12-06T04:00:26.543Z,98885.53
2022-12-06T04:02:53.443Z,98898.16
2022-12-06T04:05:20.372Z,98888.31
2022-12-06T04:07:47.439Z,98893.31
2022-12-06T04:10:14.415Z,98885.59
2022-12-06T04:13:00.095Z,98879.69
2022-12-06T04:15:32.358Z,98882.59
2022-12-06T04:18:13.497Z,98882.00
2022-12-06T04:21:06.111Z,98870.31
2022-12-06T04:23:37.240Z,98873.44
2022-12-06T04:26:05.174Z,98878.72
2022-12-06T04:28:50.973Z,98881.13
2022-12-06T04:31:36.638Z,98881.06
2022-12-06T04:34:22.066Z,98880.38
2022-12-06T04:37:07.807Z,98880.88
2022-12-06T04:39:34.866Z,98879.88
2022-12-06T04:42:20.688Z,98874.50
2022-12-06T04:44:47.690Z,98873.59
2022-12-06T04:47:16.259Z,98867.16
2022-12-06T04:49:43.285Z,98857.19
2022-12-06T04:52:10.505Z,98867.00
2022-12-06T04:54:37.730Z,98863.41
2022-12-06T04:57:04.883Z,98864.94
2022-12-06T04:59:32.000Z,98863.81
2022-12-06T05:01:59.275Z,98862.13
2022-12-06T05:04:26.457Z,98846.59
2022-12-06T05:06:53.634Z,98853.06
2022-12-06T05:09:20.905Z,98852.53
2022-12-06T05:11:47.958Z,98864.28
2022-12-06T05:14:15.041Z,98852.25
2022-12-06T05:16:42.063Z,98857.16
2022-12-06T05:19:10.065Z,98858.84
2022-12-06T05:21:37.051Z,98872.81
2022-12-06T05:24:04.206Z,98871.84
2022-12-06T05:26:31.214Z,98879.50
2022-12-06T05:28:58.330Z,98869.31
2022-12-06T05:31:25.930Z,98862.69
2022-12-06T05:33:53.196Z,98858.28
2022-12-06T05:36:24.943Z,98852.09
2022-12-06T05:38:52.141Z,98856.84
2022-12-06T05:41:20.091Z,98856.44
2022-12-06T05:43:47.165Z,98853.16
2022-12-06T05:46:14.404Z,98845.31
2022-12-06T05:48:41.773Z,98827.84
2022-12-06T05:51:08.843Z,98836.63
2022-12-06T05:53:36.038Z,98827.16
2022-12-06T05:56:10.554Z,98826.34
2022-12-06T05:58:37.895Z,98809.25
2022-12-06T06:01:06.023Z,98826.34
2022-12-06T06:03:33.250Z,98830.31
2022-12-06T06:06:00.985Z,98828.34
2022-12-06T06:08:28.381Z,98829.13
2022-12-06T06:10:55.564Z,98829.56
2022-12-06T06:13:22.702Z,98828.34
2022-12-06T06:15:50.129Z,98829.91
2022-12-06T06:18:17.782Z,98779.25
2022-12-06T06:20:55.314Z,98824.81
2022-12-06T06:23:22.538Z,98820.84
2022-12-06T06:25:49.682Z,98817.75
2022-12-06T06:28:17.074Z,98820.94
2022-12-06T06:30:44.301Z,98820.19
2022-12-06T06:33:11.483Z,98819.09
2022-12-06T06:35:38.419Z,98820.91
2022-12-06T06:38:05.380Z,98817.00
2022-12-06T06:40:32.471Z,98816.53
2022-12-06T06:43:18.591Z,98819.31
2022-12-06T06:45:56.138Z,98812.97
2022-12-06T06:48:23.877Z,98812.84
2022-12-06T06:50:56.665Z,98811.63
2022-12-06T06:53:26.557Z,98818.69
2022-12-06T06:55:54.292Z,98813.97
2022-12-06T06:58:21.350Z,98815.31
2022-12-06T07:00:56.054Z,98817.28
2022-12-06T07:03:23.416Z,98822.81
2022-12-06T07:06:01.551Z,98821.63
2022-12-06T07:08:29.198Z,98812.56
2022-12-06T07:10:56.226Z,98804.78
2022-12-06T07:13:24.652Z,98808.31
2022-12-06T07:15:51.696Z,98810.72
2022-12-06T07:18:19.248Z,98811.16
2022-12-06T07:20:46.495Z,98787.31
2022-12-06T07:23:13.887Z,98805.91
2022-12-06T07:25:42.107Z,98810.22
2022-12-06T07:28:09.217Z,98811.34
2022-12-06T07:30:36.251Z,98799.63
2022-12-06T07:33:03.348Z,98807.91
2022-12-06T07:35:48.846Z,98788.84
2022-12-06T07:38:17.527Z,98786.09
2022-12-06T07:43:50.346Z,98814.66
2022-12-06T07:46:17.485Z,98820.81
2022-12-06T07:48:44.506Z,98818.25
2022-12-06T07:51:11.603Z,98818.69
2022-12-06T07:53:38.705Z,98822.66
2022-12-06T07:56:07.337Z,98821.50
2022-12-06T07:58:34.344Z,98819.53
2022-12-06T08:01:03.531Z,98801.25
2022-12-06T08:03:30.514Z,98828.16
2022-12-06T08:05:57.650Z,98821.88
2022-12-06T08:08:28.499Z,98819.91
2022-12-06T08:11:00.232Z,98824.63
2022-12-06T08:13:27.832Z,98818.69
2022-12-06T08:15:54.919Z,98819.03
2022-12-06T08:18:22.111Z,98820.66
2022-12-06T08:20:49.125Z,98813.13
2022-12-06T08:23:16.056Z,98818.53
2022-12-06T08:25:43.009Z,98820.56
2022-12-06T08:28:10.026Z,98813.81
2022-12-06T08:30:40.453Z,98809.94
2022-12-06T08:33:07.474Z,98810.78
2022-12-06T08:35:37.006Z,98804.44
2022-12-06T08:38:03.966Z,98798.94
2022-12-06T08:40:31.919Z,98808.06
2022-12-06T08:42:58.942Z,98810.41
2022-12-06T08:45:26.007Z,98812.84
2022-12-06T08:47:53.007Z,98813.31
2022-12-06T08:50:20.994Z,98815.97
2022-12-06T08:52:48.038Z,98814.75
2022-12-06T08:55:15.035Z,98824.56
2022-12-06T08:57:42.584Z,98821.38
2022-12-06T09:00:10.394Z,98828.53
2022-12-06T09:02:40.746Z,98813.50
2022-12-06T09:05:08.499Z,98790.28
2022-12-06T09:07:35.708Z,98816.44
2022-12-06T09:10:03.018Z,98809.28
2022-12-06T09:12:30.366Z,98818.38
2022-12-06T09:14:58.442Z,98830.84
2022-12-06T09:17:25.337Z,98813.22
2022-12-06T09:19:52.334Z,98818.16
2022-12-06T09:22:19.327Z,98820.06
2022-12-06T09:24:46.287Z,98815.44
2022-12-06T09:27:13.295Z,98816.75
2022-12-06T09:29:40.969Z,98814.88
2022-12-06T09:32:08.013Z,98815.16
2022-12-06T09:34:35.441Z,98808.94
2022-12-06T09:37:07.619Z,98818.31
2022-12-06T09:39:39.618Z,98809.56
2022-12-06T09:42:37.463Z,98810.72
2022-12-06T09:45:23.944Z,98802.88
2022-12-06T09:48:10.521Z,98770.50
2022-12-06T09:51:15.538Z,98755.31
2022-12-06T09:53:57.894Z,98785.91
2022-12-06T09:56:36.428Z,98783.94
2022-12-06T09:59:28.350Z,98777.59
2022-12-06T10:02:07.458Z,98777.25
2022-12-06T10:05:03.690Z,98778.44
2022-12-06T10:07:50.577Z,98775.84
2022-12-06T10:10:31.290Z,98774.19
2022-12-06T10:13:27.648Z,98776.56
2022-12-06T10:16:11.968Z,98769.28
2022-12-06T10:19:06.330Z,98765.16
2022-12-06T10:22:07.307Z,98756.50
2022-12-06T10:24:46.429Z,98765.19
2022-12-06T10:27:23.827Z,98735.81
2022-12-06T10:29:59.118Z,98735.19
2022-12-06T10:32:33.565Z,98750.00
2022-12-06T10:35:22.793Z,98751.41
2022-12-06T10:37:58.986Z,98751.44
2022-12-06T10:40:49.030Z,98744.09
2022-12-06T10:43:26.087Z,98744.38
2022-12-06T10:46:23.847Z,98751.53
2022-12-06T10:49:06.131Z,98753.94
2022-12-06T10:52:11.485Z,98755.16
2022-12-06T10:54:58.527Z,98749.34
2022-12-06T10:57:46.409Z,98753.97
2022-12-06T11:00:24.648Z,98752.16
2022-12-06T11:03:00.644Z,98752.97
2022-12-06T11:05:31.928Z,98749.16
2022-12-06T11:08:07.272Z,98745.16
2022-12-06T11:10:34.577Z,98717.00
2022-12-06T11:13:17.067Z,98741.94
2022-12-06T11:16:23.157Z,98734.09
2022-12-06T11:18:50.260Z,98735.19
2022-12-06T11:21:40.580Z,98741.50
2022-12-06T11:24:28.632Z,98734.41
2022-12-06T11:27:01.190Z,98729.06
2022-12-06T11:29:28.245Z,98728.81
2022-12-06T11:31:57.111Z,98707.91
2022-12-06T11:34:46.543Z,98714.34
2022-12-06T11:37:18.221Z,98734.88
2022-12-06T11:39:45.238Z,98726.31
2022-12-06T11:42:13.617Z,98727.47
2022-12-06T11:44:50.035Z,98728.06
2022-12-06T11:47:22.003Z,98714.28
2022-12-06T11:49:49.582Z,98700.91
2022-12-06T11:52:33.992Z,98713.19
2022-12-06T11:55:16.103Z,98716.81
2022-12-06T11:57:46.633Z,98691.56
2022-12-06T12:00:17.914Z,98714.09
2022-12-06T12:02:46.264Z,98695.09
2022-12-06T12:05:34.454Z,98712.59
2022-12-06T12:08:20.656Z,98709.44
2022-12-06T12:10:47.796Z,98712.59
2022-12-06T12:13:38.706Z,98711.75
2022-12-06T12:16:20.583Z,98693.59
2022-12-06T12:19:22.562Z,98711.59
2022-12-06T12:21:54.025Z,98715.91
2022-12-06T12:27:34.620Z,98706.41
2022-12-06T12:30:20.262Z,98705.28
2022-12-06T12:32:47.906Z,98708.53
2022-12-06T12:35:21.279Z,98697.19
2022-12-06T12:37:55.767Z,98696.75
2022-12-06T12:40:34.476Z,98692.84
2022-12-06T12:43:26.035Z,98698.38
2022-12-06T12:46:12.229Z,98698.38
2022-12-06T12:48:40.243Z,98698.38
2022-12-06T12:51:22.076Z,98692.63
2022-12-06T12:53:54.021Z,98695.81
2022-12-06T12:56:21.336Z,98676.72
2022-12-06T12:58:50.434Z,98686.78
2022-12-06T13:01:37.570Z,98700.56
2022-12-06T13:04:11.755Z,98694.66
2022-12-06T13:06:47.007Z,98700.25
2022-12-06T13:09:24.422Z,98674.78
2022-12-06T13:12:03.071Z,98699.22
2022-12-06T13:14:30.016Z,98692.91
2022-12-06T13:16:58.546Z,98697.03
2022-12-06T13:19:31.651Z,98694.13
2022-12-06T13:21:58.626Z,98692.63
2022-12-06T13:24:27.422Z,98690.25
2022-12-06T13:27:00.548Z,98698.19
2022-12-06T13:29:33.877Z,98696.22
2022-12-06T13:32:13.474Z,98693.03
2022-12-06T13:34:43.887Z,98679.59
2022-12-06T13:37:26.980Z,98705.25
2022-12-06T13:39:54.021Z,98697.25
2022-12-06T13:42:28.140Z,98704.28
2022-12-06T13:44:59.869Z,98705.06
2022-12-06T13:47:26.777Z,98706.78
2022-12-06T13:49:54.246Z,98705.50
2022-12-06T13:52:42.774Z,98704.09
2022-12-06T13:55:25.006Z,98710.72
2022-12-06T13:57:55.235Z,98709.81
2022-12-06T14:00:30.763Z,98712.81
2022-12-06T14:03:15.968Z,98703.84
2022-12-06T14:06:15.218Z,98701.78
2022-12-06T14:08:44.596Z,98705.13
2022-12-06T14:11:27.310Z,98697.00
2022-12-06T14:14:00.367Z,98707.31
2022-12-06T14:16:31.862Z,98703.88
2022-12-06T14:18:59.314Z,98671.94
2022-12-06T14:21:39.310Z,98693.91
2022-12-06T14:24:06.508Z,98689.81
2022-12-06T14:26:34.481Z,98682.88
2022-12-06T14:29:01.585Z,98690.59
2022-12-06T14:31:34.810Z,98698.69
2022-12-06T14:34:02.056Z,98697.97
2022-12-06T14:36:38.821Z,98673.88
2022-12-06T14:39:15.817Z,98680.28
2022-12-06T14:42:33.553Z,98704.47
2022-12-06T14:45:02.519Z,98705.69
2022-12-06T14:47:30.811Z,98697.13
2022-12-06T14:50:17.730Z,98687.53
2022-12-06T14:53:06.761Z,98711.03
2022-12-06T14:55:37.136Z,98706.72
2022-12-06T14:58:14.731Z,98710.84
2022-12-06T15:00:52.037Z,98700.63
2022-12-06T15:03:18.893Z,98713.25
2022-12-06T15:05:49.923Z,98682.31
2022-12-06T15:08:28.918Z,98714.22
2022-12-06T15:11:04.618Z,98718.25
2022-12-06T15:13:31.560Z,98721.63
2022-12-06T15:16:08.411Z,98714.56
2022-12-06T15:18:42.554Z,98705.50
2022-12-06T15:21:17.149Z,98719.88
2022-12-06T15:23:50.739Z,98717.06
2022-12-06T15:26:18.078Z,98684.34
2022-12-06T15:28:44.934Z,98703.81
2022-12-06T15:31:18.912Z,98721.81
2022-12-06T15:33:46.128Z,98729.00
2022-12-06T15:36:23.833Z,98726.03
2022-12-06T15:38:50.865Z,98729.72
2022-12-06T15:41:18.743Z,98726.31
2022-12-06T15:43:46.184Z,98734.84
2022-12-06T15:46:26.859Z,98730.91
2022-12-06T15:48:54.056Z,98700.38
2022-12-06T15:51:24.847Z,98708.09
2022-12-06T15:53:51.758Z,98730.91
2022-12-06T15:56:20.464Z,98722.53
2022-12-06T15:58:47.505Z,98735.41
2022-12-06T16:01:20.203Z,98741.09
2022-12-06T16:03:47.564Z,98740.75
2022-12-06T16:06:15.762Z,98744.22
2022-12-06T16:08:42.716Z,98747.06
2022-12-06T16:11:12.119Z,98739.31
2022-12-06T16:13:39.551Z,98741.84
2022-12-06T16:16:06.736Z,98735.97
2022-12-06T16:18:33.753Z,98735.28
2022-12-06T16:21:00.616Z,98712.72
2022-12-06T16:24:12.640Z,98728.88
2022-12-06T16:26:36.310Z,98724.50
2022-12-06T16:29:04.839Z,98726.81
2022-12-06T16:31:35.119Z,98738.25
2022-12-06T16:34:04.855Z,98746.75
2022-12-06T16:36:32.116Z,98737.66
2022-12-06T16:39:02.002Z,98751.56
2022-12-06T16:41:35.833Z,98743.56
2022-12-06T16:44:02.944Z,98744.28
2022-12-06T16:46:30.751Z,98742.88
2022-12-06T16:49:10.654Z,98734.72
2022-12-06T16:51:46.247Z,98741.97
2022-12-06T16:54:13.266Z,98742.53
2022-12-06T16:56:41.747Z,98728.91
2022-12-06T16:59:14.092Z,98708.28
2022-12-06T17:01:47.062Z,98737.72
2022-12-06T17:04:13.945Z,98729.66
2022-12-06T17:06:40.806Z,98743.56
2022-12-06T17:09:07.694Z,98746.81
2022-12-06T17:11:53.737Z,98743.75
2022-12-06T17:14:22.424Z,98742.63
2022-12-06T17:16:49.403Z,98749.22
2022-12-06T17:19:20.513Z,98745.88
2022-12-06T17:21:47.809Z,98749.75
2022-12-06T17:24:15.147Z,98721.94
2022-12-06T17:26:42.201Z,98749.13
2022-12-06T17:29:09.244Z,98756.00
2022-12-06T17:31:36.436Z,98749.78
2022-12-06T17:34:03.616Z,98756.03
2022-12-06T17:36:31.298Z,98759.09
2022-12-06T17:38:58.171Z,98762.75
2022-12-06T17:41:49.928Z,98761.47
2022-12-06T17:44:18.601Z,98754.16
2022-12-06T17:46:45.568Z,98753.31
2022-12-06T17:49:17.068Z,98760.88
2022-12-06T17:51:43.919Z,98760.03
2022-12-06T17:54:10.846Z,98755.56
2022-12-06T17:56:38.921Z,98749.16
2022-12-06T17:59:10.625Z,98752.34
2022-12-06T18:02:06.190Z,98752.19
2022-12-06T18:04:24.634Z,98757.47
2022-12-06T18:06:51.530Z,98754.56
2022-12-06T18:09:18.383Z,98745.94
2022-12-06T18:11:45.350Z,98749.78
2022-12-06T18:14:12.636Z,98742.25
2022-12-06T18:16:40.335Z,98741.63
2022-12-06T18:19:09.611Z,98749.91
2022-12-06T18:21:36.676Z,98744.94
2022-12-06T18:24:22.130Z,98720.09
2022-12-06T18:26:50.164Z,98748.56
2022-12-06T18:29:19.216Z,98746.19
2022-12-06T18:31:46.203Z,98747.41
2022-12-06T18:34:13.264Z,98739.41
2022-12-06T18:36:40.770Z,98743.88
2022-12-06T18:39:14.368Z,98738.59
2022-12-06T18:41:42.423Z,98701.72
2022-12-06T18:44:09.611Z,98738.09
2022-12-06T18:46:38.023Z,98741.56
2022-12-06T18:49:04.920Z,98738.38
2022-12-06T18:51:33.578Z,98742.81
2022-12-06T18:54:05.074Z,98750.28
2022-12-06T18:56:32.676Z,98720.47
2022-12-06T18:59:00.816Z,98743.38
2022-12-06T19:01:32.370Z,98740.47
2022-12-06T19:04:00.957Z,98733.91
2022-12-06T19:06:29.874Z,98728.44
2022-12-06T19:08:58.005Z,98729.69
2022-12-06T19:11:24.884Z,98735.69
2022-12-06T19:13:55.597Z,98738.97
2022-12-06T19:16:26.999Z,98731.50
2022-12-06T19:18:55.227Z,98698.19
2022-12-06T19:21:22.106Z,98695.00
2022-12-06T19:23:54.810Z,98728.44
2022-12-06T19:26:21.750Z,98704.03
2022-12-06T19:28:48.641Z,98726.97
2022-12-06T19:31:15.569Z,98724.09
2022-12-06T19:33:43.620Z,98721.66
2022-12-06T19:36:19.133Z,98695.03
2022-12-06T19:38:46.099Z,98722.91
2022-12-06T19:41:14.353Z,98706.38
2022-12-06T19:43:59.844Z,98726.34
2022-12-06T19:46:27.759Z,98664.84
2022-12-06T19:48:59.222Z,98719.31
2022-12-06T19:51:29.084Z,98725.38
2022-12-06T19:53:57.884Z,98668.50
2022-12-06T19:56:25.083Z,98686.53
2022-12-06T19:58:51.948Z,98721.63
2022-12-06T20:01:21.370Z,98722.22
2022-12-06T20:03:48.389Z,98722.00
2022-12-06T20:06:18.380Z,98721.31
2022-12-06T20:08:45.806Z,98689.31
2022-12-06T20:11:32.342Z,98713.25
2022-12-06T20:14:02.843Z,98712.66
2022-12-06T20:16:29.831Z,98710.03
2022-12-06T20:18:56.981Z,98697.94
2022-12-06T20:21:24.020Z,98706.25
2022-12-06T20:23:50.865Z,98708.75
2022-12-06T20:26:17.839Z,98705.13
2022-12-06T20:28:45.350Z,98699.06
2022-12-06T20:31:13.986Z,98706.06
2022-12-06T20:33:41.016Z,98705.88
2022-12-06T20:36:15.788Z,98698.13
2022-12-06T20:38:42.495Z,98698.06
2022-12-06T20:41:09.846Z,98691.44
2022-12-06T20:43:37.059Z,98694.16
2022-12-06T20:46:13.169Z,98660.19
2022-12-06T20:48:42.125Z,98685.34
2022-12-06T20:51:10.741Z,98663.81
2022-12-06T20:53:37.621Z,98692.47
2022-12-06T20:56:08.961Z,98685.25
2022-12-06T20:58:35.952Z,98652.38
2022-12-06T21:01:03.126Z,98687.25
2022-12-06T21:03:32.039Z,98650.69
2022-12-06T21:06:03.519Z,98685.22
2022-12-06T21:08:30.474Z,98680.94
2022-12-06T21:11:21.724Z,98676.50
2022-12-06T21:13:44.450Z,98678.72
2022-12-06T21:16:16.978Z,98678.22
2022-12-06T21:18:44.153Z,98678.81
2022-12-06T21:21:11.359Z,98664.78
2022-12-06T21:23:39.457Z,98681.94
2022-12-06T21:26:06.457Z,98688.41
2022-12-06T21:28:33.844Z,98676.50
2022-12-06T21:31:01.454Z,98687.94
2022-12-06T21:33:28.387Z,98686.63
2022-12-06T21:35:55.300Z,98662.06
2022-12-06T21:38:22.261Z,98685.91
2022-12-06T21:40:53.073Z,98679.19
2022-12-06T21:43:21.422Z,98687.13
2022-12-06T21:45:48.302Z,98685.81
2022-12-06T21:48:15.153Z,98681.50
2022-12-06T21:50:42.034Z,98682.91
2022-12-06T21:53:08.881Z,98684.28
2022-12-06T21:55:38.072Z,98671.53
2022-12-06T21:58:04.924Z,98679.38
2022-12-06T22:00:31.769Z,98681.34
2022-12-06T22:02:58.698Z,98673.31
2022-12-06T22:05:25.641Z,98668.00
2022-12-06T22:07:52.940Z,98673.75
2022-12-06T22:10:19.921Z,98677.56
2022-12-06T22:12:47.745Z,98673.94
2022-12-06T22:15:14.691Z,98650.47
2022-12-06T22:17:41.538Z,98667.44
2022-12-06T22:20:08.541Z,98668.78
2022-12-06T22:22:35.389Z,98662.94
2022-12-06T22:25:02.563Z,98671.56
2022-12-06T22:27:29.810Z,98657.53
2022-12-06T22:29:56.683Z,98640.25
2022-12-06T22:32:23.599Z,98666.16
2022-12-06T22:34:50.516Z,98660.69
2022-12-06T22:37:17.386Z,98652.19
2022-12-06T22:39:44.218Z,98646.19
2022-12-06T22:42:11.119Z,98642.19
2022-12-06T22:44:37.983Z,98641.97
2022-12-06T22:47:04.889Z,98644.34
2022-12-06T22:49:31.841Z,98636.50
2022-12-06T22:51:58.685Z,98636.03
2022-12-06T22:54:25.527Z,98606.91
2022-12-06T22:56:52.683Z,98640.38
2022-12-06T22:59:20.920Z,98634.72
2022-12-06T23:01:47.824Z,98608.44
2022-12-06T23:04:14.817Z,98630.31
2022-12-06T23:06:41.666Z,98632.81
2022-12-06T23:09:08.688Z,98574.31
2022-12-06T23:11:36.173Z,98633.88
2022-12-06T23:14:04.478Z,98634.34
2022-12-06T23:16:31.817Z,98632.09
2022-12-06T23:18:59.947Z,98593.41
2022-12-06T23:21:31.620Z,98597.94
2022-12-06T23:24:00.026Z,98594.06
2022-12-06T23:26:31.802Z,98621.09
2022-12-06T23:28:58.806Z,98617.13
2022-12-06T23:31:30.154Z,98593.63
2022-12-06T23:33:58.749Z,98612.47
2022-12-06T23:36:27.442Z,98596.03
2022-12-06T23:38:54.530Z,98609.16
2022-12-06T23:41:22.979Z,98592.63
2022-12-06T23:43:50.806Z,98603.03
2022-12-06T23:46:22.226Z,98601.97
2022-12-06T23:48:50.516Z,98599.34
2022-12-06T23:51:18.886Z,98603.16
2022-12-06T23:53:45.742Z,98603.41
2022-12-06T23:56:14.259Z,98590.59
2022-12-06T23:58:41.430Z,98596.69
